Axis, AL (36505)

2:26 PM CDT on September 04, 2015 (GMT -0500)
APRSWXNET | | Change Station
CLOSE
Current Station
Personal Weather Station
Location: Chunchula, AL
Elevation: 269 ft
Nearby Weather Stations

Elev 269 ft 30.98 °N, 88.12 °W | Updated 18 minutes ago

Partly Cloudy
Partly Cloudy
94 °F
Feels Like 102 °F
N
3
Wind Variable Wind from SE
Gusts 7.0 mph

Today
High -- | Low -- °F
--% Chance of Precip.
Yesterday
High -- | Low -- °F
Precip. -- in
6:30 AM 7:11 PM
Waning Gibbous, 57% visible
Pressure 29.98 in
Visibility 10.0 miles
Clouds Scattered Clouds 4400 ft
Heat Index 102 °F
Dew Point 72 °F
Humidity 49%
Rainfall in
Snow Depth Not available.
UV 9 out of 12
Pollen 8.30 out of 12
Air Quality Not available.
Flu Activity Not available.
METAR KMOB 041856Z 00000KT 10SM SCT044 32/22 A2998 RMK AO2 SLP150 T03220217
Pressure 29.98 in
Visibility 10.0 miles
Clouds Scattered Clouds 4400 ft
Heat Index 102 °F
Dew Point 72 °F
Humidity 49%
Rainfall in
Snow Depth Not available.
UV 9 out of 12
Pollen 8.30 out of 12
Air Quality Not available.
Flu Activity Not available.
METAR KMOB 041856Z 00000KT 10SM SCT044 32/22 A2998 RMK AO2 SLP150 T03220217

10-Day Weather Forecast

×

Almanac

Astronomy

Sep. 04, 2015 Rise Set
Actual Time
Civil Twilight
Nautical Twilight
Astronomical Twilight
Moon
Length of Visible Light
Length of Day
Tomorrow will be .
, % of the Moon is Illuminated

Today's Extremes

State Highs State Lows

Community

WunderPhotos

Upload Photos

1,852,271 photos uploaded!

WunderBlogs® & News

Nearby

Air Quality

  Air Quality AQ Index Pollutant
Not available.

Snow Depth

Station Depth Elevation

Earthquake Activity

City Distance Mag. Time & Date
Minimum magnitude displayed is 2.5.

Coastal Water Temperatures

Place Temperature

Stations

Nearby Weather Stations

Station Location Temp. Windchill Dew Point Humidity Wind Precip. Elev Updated Type